sensor_id;sensor_type;location;lat;lon;timestamp;P1;durP1;ratioP1;P2;durP2;ratioP2
33206;SDS011;19565;46.602;11.534;2023-04-25T00:01:57;16.63;;;15.83;;
33206;SDS011;19565;46.602;11.534;2023-04-25T00:04:27;16.60;;;15.80;;
33206;SDS011;19565;46.602;11.534;2023-04-25T00:06:56;16.57;;;15.77;;
33206;SDS011;19565;46.602;11.534;2023-04-25T00:09:24;17.47;;;16.67;;
33206;SDS011;19565;46.602;11.534;2023-04-25T00:11:52;18.10;;;17.20;;
33206;SDS011;19565;46.602;11.534;2023-04-25T00:14:20;19.47;;;18.47;;
33206;SDS011;19565;46.602;11.534;2023-04-25T00:16:49;18.10;;;17.20;;
33206;SDS011;19565;46.602;11.534;2023-04-25T00:19:18;17.10;;;16.30;;
33206;SDS011;19565;46.602;11.534;2023-04-25T00:21:47;17.20;;;16.40;;
33206;SDS011;19565;46.602;11.534;2023-04-25T00:24:15;17.67;;;16.60;;
33206;SDS011;19565;46.602;11.534;2023-04-25T00:26:43;17.23;;;16.43;;
33206;SDS011;19565;46.602;11.534;2023-04-25T00:29:11;16.10;;;15.30;;
33206;SDS011;19565;46.602;11.534;2023-04-25T00:31:39;15.60;;;14.80;;
33206;SDS011;19565;46.602;11.534;2023-04-25T00:34:08;16.47;;;15.67;;
33206;SDS011;19565;46.602;11.534;2023-04-25T00:36:36;16.40;;;15.60;;
33206;SDS011;19565;46.602;11.534;2023-04-25T00:39:06;17.07;;;16.17;;
33206;SDS011;19565;46.602;11.534;2023-04-25T00:41:34;17.13;;;16.33;;
33206;SDS011;19565;46.602;11.534;2023-04-25T00:44:03;16.80;;;16.00;;
33206;SDS011;19565;46.602;11.534;2023-04-25T00:46:31;16.03;;;15.23;;
33206;SDS011;19565;46.602;11.534;2023-04-25T00:49:00;16.00;;;15.20;;
33206;SDS011;19565;46.602;11.534;2023-04-25T00:51:29;16.30;;;15.50;;
33206;SDS011;19565;46.602;11.534;2023-04-25T00:54:00;16.43;;;15.63;;
33206;SDS011;19565;46.602;11.534;2023-04-25T00:56:30;16.10;;;15.30;;
33206;SDS011;19565;46.602;11.534;2023-04-25T00:58:58;16.07;;;15.27;;
33206;SDS011;19565;46.602;11.534;2023-04-25T01:01:27;15.97;;;15.17;;
33206;SDS011;19565;46.602;11.534;2023-04-25T01:03:55;15.60;;;14.80;;
33206;SDS011;19565;46.602;11.534;2023-04-25T01:06:25;16.37;;;15.57;;
33206;SDS011;19565;46.602;11.534;2023-04-25T01:08:53;15.80;;;15.00;;
33206;SDS011;19565;46.602;11.534;2023-04-25T01:11:21;15.50;;;14.70;;
33206;SDS011;19565;46.602;11.534;2023-04-25T01:13:51;15.30;;;14.50;;
33206;SDS011;19565;46.602;11.534;2023-04-25T01:16:19;14.90;;;14.20;;
33206;SDS011;19565;46.602;11.534;2023-04-25T01:18:50;14.90;;;14.20;;
33206;SDS011;19565;46.602;11.534;2023-04-25T01:21:20;15.13;;;14.43;;
33206;SDS011;19565;46.602;11.534;2023-04-25T01:23:48;15.20;;;14.40;;
33206;SDS011;19565;46.602;11.534;2023-04-25T01:26:17;14.90;;;14.20;;
33206;SDS011;19565;46.602;11.534;2023-04-25T01:28:47;14.47;;;13.77;;
33206;SDS011;19565;46.602;11.534;2023-04-25T01:31:16;14.10;;;13.40;;
33206;SDS011;19565;46.602;11.534;2023-04-25T01:33:45;13.10;;;12.40;;
33206;SDS011;19565;46.602;11.534;2023-04-25T01:36:13;12.43;;;11.83;;
33206;SDS011;19565;46.602;11.534;2023-04-25T01:38:44;13.33;;;12.10;;
33206;SDS011;19565;46.602;11.534;2023-04-25T01:41:13;12.23;;;11.63;;
33206;SDS011;19565;46.602;11.534;2023-04-25T01:43:43;12.00;;;11.40;;
33206;SDS011;19565;46.602;11.534;2023-04-25T01:46:11;10.70;;;10.10;;
33206;SDS011;19565;46.602;11.534;2023-04-25T01:48:39;10.60;;;10.00;;
33206;SDS011;19565;46.602;11.534;2023-04-25T01:51:07;10.70;;;10.10;;
33206;SDS011;19565;46.602;11.534;2023-04-25T01:53:38;11.03;;;10.43;;
33206;SDS011;19565;46.602;11.534;2023-04-25T01:56:08;11.60;;;11.00;;
33206;SDS011;19565;46.602;11.534;2023-04-25T01:58:36;11.50;;;10.90;;
33206;SDS011;19565;46.602;11.534;2023-04-25T02:01:04;12.30;;;11.70;;
33206;SDS011;19565;46.602;11.534;2023-04-25T02:03:32;12.97;;;12.27;;
33206;SDS011;19565;46.602;11.534;2023-04-25T02:06:02;14.00;;;13.30;;
33206;SDS011;19565;46.602;11.534;2023-04-25T02:08:30;14.30;;;13.60;;
33206;SDS011;19565;46.602;11.534;2023-04-25T02:10:58;15.50;;;14.70;;
33206;SDS011;19565;46.602;11.534;2023-04-25T02:13:28;16.17;;;15.37;;
33206;SDS011;19565;46.602;11.534;2023-04-25T02:15:56;16.07;;;15.27;;
33206;SDS011;19565;46.602;11.534;2023-04-25T02:18:24;15.97;;;15.17;;
33206;SDS011;19565;46.602;11.534;2023-04-25T02:20:53;15.97;;;15.17;;
33206;SDS011;19565;46.602;11.534;2023-04-25T02:23:21;15.10;;;14.40;;
33206;SDS011;19565;46.602;11.534;2023-04-25T02:25:49;15.47;;;14.50;;
33206;SDS011;19565;46.602;11.534;2023-04-25T02:28:17;14.90;;;14.20;;
33206;SDS011;19565;46.602;11.534;2023-04-25T02:30:47;14.63;;;13.93;;
33206;SDS011;19565;46.602;11.534;2023-04-25T02:33:15;14.70;;;14.00;;
33206;SDS011;19565;46.602;11.534;2023-04-25T02:35:43;34.60;;;33.10;;
33206;SDS011;19565;46.602;11.534;2023-04-25T02:38:11;36.17;;;34.67;;
33206;SDS011;19565;46.602;11.534;2023-04-25T02:40:39;36.20;;;34.70;;
33206;SDS011;19565;46.602;11.534;2023-04-25T02:43:07;35.93;;;34.43;;
33206;SDS011;19565;46.602;11.534;2023-04-25T02:45:35;35.47;;;33.97;;
33206;SDS011;19565;46.602;11.534;2023-04-25T02:48:05;34.97;;;33.47;;
33206;SDS011;19565;46.602;11.534;2023-04-25T02:50:33;35.87;;;34.37;;
33206;SDS011;19565;46.602;11.534;2023-04-25T02:53:01;36.20;;;34.67;;
33206;SDS011;19565;46.602;11.534;2023-04-25T02:55:29;34.87;;;33.37;;
33206;SDS011;19565;46.602;11.534;2023-04-25T02:57:57;35.87;;;34.37;;
33206;SDS011;19565;46.602;11.534;2023-04-25T03:00:25;35.77;;;34.27;;
33206;SDS011;19565;46.602;11.534;2023-04-25T03:02:53;35.53;;;34.03;;
33206;SDS011;19565;46.602;11.534;2023-04-25T03:05:23;36.23;;;34.63;;
33206;SDS011;19565;46.602;11.534;2023-04-25T03:07:51;35.47;;;33.97;;
33206;SDS011;19565;46.602;11.534;2023-04-25T03:10:19;34.70;;;33.20;;
33206;SDS011;19565;46.602;11.534;2023-04-25T03:12:47;34.20;;;32.70;;
33206;SDS011;19565;46.602;11.534;2023-04-25T03:15:15;33.03;;;31.63;;
33206;SDS011;19565;46.602;11.534;2023-04-25T03:17:44;31.73;;;30.33;;
33206;SDS011;19565;46.602;11.534;2023-04-25T03:20:12;29.60;;;28.30;;
33206;SDS011;19565;46.602;11.534;2023-04-25T03:22:41;29.93;;;28.63;;
33206;SDS011;19565;46.602;11.534;2023-04-25T03:25:09;30.30;;;29.00;;
33206;SDS011;19565;46.602;11.534;2023-04-25T03:27:38;29.77;;;28.47;;
33206;SDS011;19565;46.602;11.534;2023-04-25T03:30:06;11.60;;;11.00;;
33206;SDS011;19565;46.602;11.534;2023-04-25T03:32:35;10.60;;;10.00;;
33206;SDS011;19565;46.602;11.534;2023-04-25T03:35:03;10.60;;;10.00;;
33206;SDS011;19565;46.602;11.534;2023-04-25T03:37:32;10.10;;;9.50;;
33206;SDS011;19565;46.602;11.534;2023-04-25T03:40:01;9.30;;;8.80;;
33206;SDS011;19565;46.602;11.534;2023-04-25T03:42:30;8.63;;;8.13;;
33206;SDS011;19565;46.602;11.534;2023-04-25T03:44:58;7.70;;;7.20;;
33206;SDS011;19565;46.602;11.534;2023-04-25T03:47:26;6.40;;;6.00;;
33206;SDS011;19565;46.602;11.534;2023-04-25T03:49:54;5.20;;;4.90;;
33206;SDS011;19565;46.602;11.534;2023-04-25T03:52:22;4.73;;;4.43;;
33206;SDS011;19565;46.602;11.534;2023-04-25T03:54:50;4.00;;;3.80;;
33206;SDS011;19565;46.602;11.534;2023-04-25T03:57:21;3.50;;;3.30;;
33206;SDS011;19565;46.602;11.534;2023-04-25T03:59:49;3.30;;;3.10;;
33206;SDS011;19565;46.602;11.534;2023-04-25T04:02:17;3.20;;;3.00;;
33206;SDS011;19565;46.602;11.534;2023-04-25T04:04:45;2.77;;;2.67;;
33206;SDS011;19565;46.602;11.534;2023-04-25T04:07:14;3.07;;;2.87;;
33206;SDS011;19565;46.602;11.534;2023-04-25T04:09:42;2.47;;;2.37;;
33206;SDS011;19565;46.602;11.534;2023-04-25T04:12:10;2.50;;;2.40;;
33206;SDS011;19565;46.602;11.534;2023-04-25T04:14:39;1.90;;;1.80;;
33206;SDS011;19565;46.602;11.534;2023-04-25T04:17:07;6.77;;;6.37;;
33206;SDS011;19565;46.602;11.534;2023-04-25T04:19:35;6.50;;;6.10;;
33206;SDS011;19565;46.602;11.534;2023-04-25T04:22:03;6.80;;;6.40;;
33206;SDS011;19565;46.602;11.534;2023-04-25T04:24:31;6.50;;;6.10;;
33206;SDS011;19565;46.602;11.534;2023-04-25T04:27:00;7.00;;;6.53;;
33206;SDS011;19565;46.602;11.534;2023-04-25T04:29:28;6.20;;;5.80;;
33206;SDS011;19565;46.602;11.534;2023-04-25T04:31:58;5.77;;;5.47;;
33206;SDS011;19565;46.602;11.534;2023-04-25T04:34:27;6.00;;;5.67;;
33206;SDS011;19565;46.602;11.534;2023-04-25T04:36:55;5.80;;;5.50;;
33206;SDS011;19565;46.602;11.534;2023-04-25T04:39:23;6.00;;;5.70;;
33206;SDS011;19565;46.602;11.534;2023-04-25T04:41:52;6.03;;;5.63;;
33206;SDS011;19565;46.602;11.534;2023-04-25T04:44:20;5.47;;;5.17;;
33206;SDS011;19565;46.602;11.534;2023-04-25T04:46:49;5.50;;;5.20;;
33206;SDS011;19565;46.602;11.534;2023-04-25T04:49:18;5.73;;;5.43;;
33206;SDS011;19565;46.602;11.534;2023-04-25T04:51:46;5.93;;;5.63;;
33206;SDS011;19565;46.602;11.534;2023-04-25T04:54:15;7.20;;;6.70;;
33206;SDS011;19565;46.602;11.534;2023-04-25T04:56:43;1.90;;;1.80;;
33206;SDS011;19565;46.602;11.534;2023-04-25T04:59:12;2.10;;;2.00;;
33206;SDS011;19565;46.602;11.534;2023-04-25T05:01:40;2.30;;;2.20;;
33206;SDS011;19565;46.602;11.534;2023-04-25T05:04:08;2.90;;;2.80;;
33206;SDS011;19565;46.602;11.534;2023-04-25T05:06:37;2.90;;;2.80;;
33206;SDS011;19565;46.602;11.534;2023-04-25T05:09:06;4.00;;;3.80;;
33206;SDS011;19565;46.602;11.534;2023-04-25T05:11:34;4.30;;;4.10;;
33206;SDS011;19565;46.602;11.534;2023-04-25T05:14:03;4.10;;;3.90;;
33206;SDS011;19565;46.602;11.534;2023-04-25T05:16:31;4.17;;;3.97;;
33206;SDS011;19565;46.602;11.534;2023-04-25T05:18:59;4.80;;;4.50;;
33206;SDS011;19565;46.602;11.534;2023-04-25T05:21:27;5.40;;;5.10;;
33206;SDS011;19565;46.602;11.534;2023-04-25T05:23:56;5.80;;;5.50;;
33206;SDS011;19565;46.602;11.534;2023-04-25T05:26:24;7.17;;;6.77;;
33206;SDS011;19565;46.602;11.534;2023-04-25T05:28:52;7.60;;;7.10;;
33206;SDS011;19565;46.602;11.534;2023-04-25T05:31:20;8.93;;;8.33;;
33206;SDS011;19565;46.602;11.534;2023-04-25T05:33:49;9.47;;;8.97;;
33206;SDS011;19565;46.602;11.534;2023-04-25T05:36:18;10.10;;;9.50;;
33206;SDS011;19565;46.602;11.534;2023-04-25T05:38:46;11.60;;;11.00;;
33206;SDS011;19565;46.602;11.534;2023-04-25T05:41:15;10.57;;;9.97;;
33206;SDS011;19565;46.602;11.534;2023-04-25T05:43:44;10.87;;;10.27;;
33206;SDS011;19565;46.602;11.534;2023-04-25T05:46:15;11.70;;;11.10;;
33206;SDS011;19565;46.602;11.534;2023-04-25T05:48:45;11.60;;;11.00;;
33206;SDS011;19565;46.602;11.534;2023-04-25T05:51:14;12.60;;;11.80;;
33206;SDS011;19565;46.602;11.534;2023-04-25T05:53:42;12.80;;;12.10;;
33206;SDS011;19565;46.602;11.534;2023-04-25T05:56:10;13.00;;;12.30;;
33206;SDS011;19565;46.602;11.534;2023-04-25T05:58:40;13.93;;;13.00;;
33206;SDS011;19565;46.602;11.534;2023-04-25T06:01:08;13.70;;;13.00;;
33206;SDS011;19565;46.602;11.534;2023-04-25T06:03:36;14.70;;;14.00;;
33206;SDS011;19565;46.602;11.534;2023-04-25T06:06:05;15.27;;;14.47;;
33206;SDS011;19565;46.602;11.534;2023-04-25T06:08:33;15.17;;;14.43;;
33206;SDS011;19565;46.602;11.534;2023-04-25T06:11:01;15.87;;;15.07;;
33206;SDS011;19565;46.602;11.534;2023-04-25T06:13:29;17.40;;;16.50;;
33206;SDS011;19565;46.602;11.534;2023-04-25T06:15:59;17.00;;;16.20;;
33206;SDS011;19565;46.602;11.534;2023-04-25T06:18:27;35.50;;;34.00;;
33206;SDS011;19565;46.602;11.534;2023-04-25T06:20:55;35.40;;;33.90;;
33206;SDS011;19565;46.602;11.534;2023-04-25T06:23:23;35.73;;;34.23;;
33206;SDS011;19565;46.602;11.534;2023-04-25T06:25:51;34.70;;;33.20;;
33206;SDS011;19565;46.602;11.534;2023-04-25T06:28:19;35.17;;;33.67;;
33206;SDS011;19565;46.602;11.534;2023-04-25T06:30:50;34.33;;;32.83;;
33206;SDS011;19565;46.602;11.534;2023-04-25T06:33:19;35.23;;;33.73;;
33206;SDS011;19565;46.602;11.534;2023-04-25T06:35:48;35.50;;;34.00;;
33206;SDS011;19565;46.602;11.534;2023-04-25T06:38:16;35.27;;;33.77;;
33206;SDS011;19565;46.602;11.534;2023-04-25T06:40:44;35.93;;;34.37;;
33206;SDS011;19565;46.602;11.534;2023-04-25T06:43:12;37.10;;;35.50;;
33206;SDS011;19565;46.602;11.534;2023-04-25T06:45:40;35.23;;;33.73;;
33206;SDS011;19565;46.602;11.534;2023-04-25T06:48:09;36.70;;;35.10;;
33206;SDS011;19565;46.602;11.534;2023-04-25T06:50:38;21.67;;;20.67;;
33206;SDS011;19565;46.602;11.534;2023-04-25T06:53:06;17.33;;;16.50;;
33206;SDS011;19565;46.602;11.534;2023-04-25T06:55:35;20.73;;;19.73;;
33206;SDS011;19565;46.602;11.534;2023-04-25T06:58:03;18.80;;;17.90;;
33206;SDS011;19565;46.602;11.534;2023-04-25T07:00:31;18.83;;;17.93;;
33206;SDS011;19565;46.602;11.534;2023-04-25T07:02:59;18.83;;;17.93;;
33206;SDS011;19565;46.602;11.534;2023-04-25T07:05:28;18.37;;;17.47;;
33206;SDS011;19565;46.602;11.534;2023-04-25T07:07:58;18.50;;;17.60;;
33206;SDS011;19565;46.602;11.534;2023-04-25T07:10:26;19.27;;;18.37;;
33206;SDS011;19565;46.602;11.534;2023-04-25T07:12:54;18.90;;;18.00;;
33206;SDS011;19565;46.602;11.534;2023-04-25T07:15:23;19.27;;;18.37;;
33206;SDS011;19565;46.602;11.534;2023-04-25T07:17:51;20.80;;;19.80;;
33206;SDS011;19565;46.602;11.534;2023-04-25T07:20:19;21.10;;;20.00;;
33206;SDS011;19565;46.602;11.534;2023-04-25T07:22:47;25.13;;;23.93;;
33206;SDS011;19565;46.602;11.534;2023-04-25T07:25:17;33.17;;;31.67;;
33206;SDS011;19565;46.602;11.534;2023-04-25T07:27:45;32.37;;;30.77;;
33206;SDS011;19565;46.602;11.534;2023-04-25T07:30:13;31.07;;;29.67;;
33206;SDS011;19565;46.602;11.534;2023-04-25T07:32:42;32.30;;;30.90;;
33206;SDS011;19565;46.602;11.534;2023-04-25T07:35:11;36.63;;;35.03;;
33206;SDS011;19565;46.602;11.534;2023-04-25T07:37:39;31.23;;;29.93;;
33206;SDS011;19565;46.602;11.534;2023-04-25T07:40:08;24.87;;;23.77;;
33206;SDS011;19565;46.602;11.534;2023-04-25T07:42:38;26.33;;;25.17;;
33206;SDS011;19565;46.602;11.534;2023-04-25T07:45:06;28.03;;;26.83;;
33206;SDS011;19565;46.602;11.534;2023-04-25T07:47:35;27.80;;;26.60;;
33206;SDS011;19565;46.602;11.534;2023-04-25T07:50:05;25.50;;;24.40;;
33206;SDS011;19565;46.602;11.534;2023-04-25T07:52:33;25.20;;;24.10;;
33206;SDS011;19565;46.602;11.534;2023-04-25T07:55:02;20.87;;;19.87;;
33206;SDS011;19565;46.602;11.534;2023-04-25T07:57:30;22.60;;;21.60;;
33206;SDS011;19565;46.602;11.534;2023-04-25T07:59:59;19.20;;;18.30;;
33206;SDS011;19565;46.602;11.534;2023-04-25T08:02:27;19.20;;;18.20;;
33206;SDS011;19565;46.602;11.534;2023-04-25T08:04:56;18.20;;;17.30;;
33206;SDS011;19565;46.602;11.534;2023-04-25T08:07:24;18.50;;;17.60;;
33206;SDS011;19565;46.602;11.534;2023-04-25T08:09:53;18.40;;;17.50;;
33206;SDS011;19565;46.602;11.534;2023-04-25T08:12:22;18.57;;;17.67;;
33206;SDS011;19565;46.602;11.534;2023-04-25T08:14:50;18.53;;;17.63;;
33206;SDS011;19565;46.602;11.534;2023-04-25T08:17:19;18.73;;;17.83;;
33206;SDS011;19565;46.602;11.534;2023-04-25T08:19:49;18.23;;;17.33;;
33206;SDS011;19565;46.602;11.534;2023-04-25T08:22:17;23.67;;;22.57;;
33206;SDS011;19565;46.602;11.534;2023-04-25T08:24:45;18.83;;;17.93;;
33206;SDS011;19565;46.602;11.534;2023-04-25T08:27:13;19.10;;;18.20;;
33206;SDS011;19565;46.602;11.534;2023-04-25T08:29:41;20.00;;;19.00;;
33206;SDS011;19565;46.602;11.534;2023-04-25T08:32:10;20.33;;;19.33;;
33206;SDS011;19565;46.602;11.534;2023-04-25T08:34:42;19.17;;;18.27;;
33206;SDS011;19565;46.602;11.534;2023-04-25T08:37:10;19.20;;;18.30;;
33206;SDS011;19565;46.602;11.534;2023-04-25T08:39:38;20.60;;;19.63;;
33206;SDS011;19565;46.602;11.534;2023-04-25T08:42:06;18.70;;;17.80;;
33206;SDS011;19565;46.602;11.534;2023-04-25T08:44:34;18.83;;;17.92;;
33206;SDS011;19565;46.602;11.534;2023-04-25T08:47:03;19.08;;;18.17;;
33206;SDS011;19565;46.602;11.534;2023-04-25T08:49:32;19.50;;;18.60;;
33206;SDS011;19565;46.602;11.534;2023-04-25T08:52:03;19.00;;;18.10;;
33206;SDS011;19565;46.602;11.534;2023-04-25T08:54:32;18.50;;;17.60;;
33206;SDS011;19565;46.602;11.534;2023-04-25T08:57:04;18.98;;;18.08;;
33206;SDS011;19565;46.602;11.534;2023-04-25T08:59:33;19.13;;;18.23;;
33206;SDS011;19565;46.602;11.534;2023-04-25T09:02:04;36.10;;;34.60;;
33206;SDS011;19565;46.602;11.534;2023-04-25T09:04:32;38.28;;;36.63;;
33206;SDS011;19565;46.602;11.534;2023-04-25T09:07:00;36.63;;;35.03;;
33206;SDS011;19565;46.602;11.534;2023-04-25T09:09:29;37.95;;;36.30;;
33206;SDS011;19565;46.602;11.534;2023-04-25T09:11:57;37.55;;;35.95;;
33206;SDS011;19565;46.602;11.534;2023-04-25T09:14:27;38.28;;;36.67;;
33206;SDS011;19565;46.602;11.534;2023-04-25T09:16:59;35.58;;;34.08;;
33206;SDS011;19565;46.602;11.534;2023-04-25T09:19:32;37.95;;;36.35;;
33206;SDS011;19565;46.602;11.534;2023-04-25T09:22:07;37.33;;;35.72;;
33206;SDS011;19565;46.602;11.534;2023-04-25T09:24:36;38.15;;;36.47;;
33206;SDS011;19565;46.602;11.534;2023-04-25T09:27:05;38.05;;;36.45;;
33206;SDS011;19565;46.602;11.534;2023-04-25T09:29:35;37.97;;;36.38;;
33206;SDS011;19565;46.602;11.534;2023-04-25T09:32:10;38.22;;;36.53;;
33206;SDS011;19565;46.602;11.534;2023-04-25T09:34:40;46.35;;;44.35;;
33206;SDS011;19565;46.602;11.534;2023-04-25T09:37:11;38.28;;;36.67;;
33206;SDS011;19565;46.602;11.534;2023-04-25T09:39:39;36.80;;;35.20;;
33206;SDS011;19565;46.602;11.534;2023-04-25T09:42:07;40.67;;;38.92;;
33206;SDS011;19565;46.602;11.534;2023-04-25T09:44:37;39.33;;;37.53;;
33206;SDS011;19565;46.602;11.534;2023-04-25T09:47:10;38.80;;;37.10;;
33206;SDS011;19565;46.602;11.534;2023-04-25T09:49:40;39.90;;;38.20;;
33206;SDS011;19565;46.602;11.534;2023-04-25T09:52:13;40.35;;;38.65;;
33206;SDS011;19565;46.602;11.534;2023-04-25T09:54:42;40.90;;;39.10;;
33206;SDS011;19565;46.602;11.534;2023-04-25T09:57:11;40.40;;;38.70;;
33206;SDS011;19565;46.602;11.534;2023-04-25T09:59:42;44.53;;;42.63;;
33206;SDS011;19565;46.602;11.534;2023-04-25T10:02:13;21.42;;;20.42;;
33206;SDS011;19565;46.602;11.534;2023-04-25T10:04:42;22.23;;;21.23;;
33206;SDS011;19565;46.602;11.534;2023-04-25T10:07:16;25.63;;;24.50;;
33206;SDS011;19565;46.602;11.534;2023-04-25T10:09:47;20.10;;;19.10;;
33206;SDS011;19565;46.602;11.534;2023-04-25T10:12:16;19.65;;;18.75;;
33206;SDS011;19565;46.602;11.534;2023-04-25T10:14:44;19.60;;;18.70;;
33206;SDS011;19565;46.602;11.534;2023-04-25T10:17:13;20.50;;;19.50;;
33206;SDS011;19565;46.602;11.534;2023-04-25T10:19:41;19.52;;;18.63;;
33206;SDS011;19565;46.602;11.534;2023-04-25T10:22:11;21.40;;;20.40;;
33206;SDS011;19565;46.602;11.534;2023-04-25T10:24:46;22.17;;;21.17;;
33206;SDS011;19565;46.602;11.534;2023-04-25T10:27:14;21.58;;;20.58;;
33206;SDS011;19565;46.602;11.534;2023-04-25T10:29:42;20.38;;;19.48;;
33206;SDS011;19565;46.602;11.534;2023-04-25T10:32:10;19.10;;;18.20;;
33206;SDS011;19565;46.602;11.534;2023-04-25T10:34:39;19.25;;;18.35;;
33206;SDS011;19565;46.602;11.534;2023-04-25T10:37:09;17.67;;;16.85;;
33206;SDS011;19565;46.602;11.534;2023-04-25T10:39:38;18.27;;;17.38;;
33206;SDS011;19565;46.602;11.534;2023-04-25T10:42:08;18.42;;;17.52;;
33206;SDS011;19565;46.602;11.534;2023-04-25T10:44:37;19.60;;;18.70;;
33206;SDS011;19565;46.602;11.534;2023-04-25T10:47:06;24.77;;;23.67;;
33206;SDS011;19565;46.602;11.534;2023-04-25T10:49:36;19.27;;;18.38;;
33206;SDS011;19565;46.602;11.534;2023-04-25T10:52:15;20.25;;;19.35;;
33206;SDS011;19565;46.602;11.534;2023-04-25T10:54:48;20.80;;;19.80;;
33206;SDS011;19565;46.602;11.534;2023-04-25T10:57:32;18.70;;;17.70;;
33206;SDS011;19565;46.602;11.534;2023-04-25T11:00:08;18.05;;;17.20;;
33206;SDS011;19565;46.602;11.534;2023-04-25T11:02:42;18.38;;;17.48;;
33206;SDS011;19565;46.602;11.534;2023-04-25T11:05:29;32.60;;;31.20;;
33206;SDS011;19565;46.602;11.534;2023-04-25T11:08:21;19.50;;;18.60;;
33206;SDS011;19565;46.602;11.534;2023-04-25T11:11:02;18.25;;;17.35;;
33206;SDS011;19565;46.602;11.534;2023-04-25T11:13:32;18.20;;;17.30;;
33206;SDS011;19565;46.602;11.534;2023-04-25T11:16:00;19.20;;;18.30;;
33206;SDS011;19565;46.602;11.534;2023-04-25T11:18:40;16.40;;;15.60;;
33206;SDS011;19565;46.602;11.534;2023-04-25T11:21:09;25.65;;;24.55;;
33206;SDS011;19565;46.602;11.534;2023-04-25T11:23:37;21.83;;;20.83;;
33206;SDS011;19565;46.602;11.534;2023-04-25T11:26:06;25.00;;;23.90;;
33206;SDS011;19565;46.602;11.534;2023-04-25T11:28:37;18.70;;;17.80;;
33206;SDS011;19565;46.602;11.534;2023-04-25T11:31:05;18.42;;;17.52;;
33206;SDS011;19565;46.602;11.534;2023-04-25T11:33:33;23.08;;;22.08;;
33206;SDS011;19565;46.602;11.534;2023-04-25T11:36:01;19.17;;;18.27;;
33206;SDS011;19565;46.602;11.534;2023-04-25T11:38:29;18.00;;;17.10;;
33206;SDS011;19565;46.602;11.534;2023-04-25T11:40:57;16.00;;;15.20;;
33206;SDS011;19565;46.602;11.534;2023-04-25T11:43:26;17.50;;;16.70;;
33206;SDS011;19565;46.602;11.534;2023-04-25T11:45:56;18.20;;;17.30;;
33206;SDS011;19565;46.602;11.534;2023-04-25T11:48:24;18.92;;;18.02;;
33206;SDS011;19565;46.602;11.534;2023-04-25T11:50:53;20.02;;;19.02;;
33206;SDS011;19565;46.602;11.534;2023-04-25T11:53:21;20.17;;;19.27;;
33206;SDS011;19565;46.602;11.534;2023-04-25T11:55:51;25.52;;;24.35;;
33206;SDS011;19565;46.602;11.534;2023-04-25T11:58:19;26.20;;;25.00;;
33206;SDS011;19565;46.602;11.534;2023-04-25T12:00:47;19.50;;;18.50;;
33206;SDS011;19565;46.602;11.534;2023-04-25T12:03:18;18.55;;;17.65;;
33206;SDS011;19565;46.602;11.534;2023-04-25T12:05:48;18.92;;;18.02;;
33206;SDS011;19565;46.602;11.534;2023-04-25T12:08:17;26.05;;;24.85;;
33206;SDS011;19565;46.602;11.534;2023-04-25T12:10:45;17.92;;;17.02;;
33206;SDS011;19565;46.602;11.534;2023-04-25T12:13:18;26.00;;;24.70;;
33206;SDS011;19565;46.602;11.534;2023-04-25T12:15:47;20.05;;;19.05;;
33206;SDS011;19565;46.602;11.534;2023-04-25T12:18:20;18.85;;;17.95;;
33206;SDS011;19565;46.602;11.534;2023-04-25T12:20:48;15.75;;;14.95;;
33206;SDS011;19565;46.602;11.534;2023-04-25T12:23:16;31.83;;;30.30;;
33206;SDS011;19565;46.602;11.534;2023-04-25T12:25:44;19.60;;;18.63;;
33206;SDS011;19565;46.602;11.534;2023-04-25T12:28:14;17.75;;;16.85;;
33206;SDS011;19565;46.602;11.534;2023-04-25T12:30:52;17.38;;;16.58;;
33206;SDS011;19565;46.602;11.534;2023-04-25T12:33:23;17.73;;;16.92;;
33206;SDS011;19565;46.602;11.534;2023-04-25T12:35:52;18.70;;;17.80;;
33206;SDS011;19565;46.602;11.534;2023-04-25T12:38:21;19.40;;;18.50;;
33206;SDS011;19565;46.602;11.534;2023-04-25T12:40:50;16.30;;;15.50;;
33206;SDS011;19565;46.602;11.534;2023-04-25T12:43:18;18.42;;;17.52;;
33206;SDS011;19565;46.602;11.534;2023-04-25T12:45:47;18.30;;;17.40;;
33206;SDS011;19565;46.602;11.534;2023-04-25T12:48:16;18.20;;;17.30;;
33206;SDS011;19565;46.602;11.534;2023-04-25T12:50:45;18.25;;;17.35;;
33206;SDS011;19565;46.602;11.534;2023-04-25T12:53:15;25.67;;;24.58;;
33206;SDS011;19565;46.602;11.534;2023-04-25T12:55:43;23.30;;;22.20;;
33206;SDS011;19565;46.602;11.534;2023-04-25T12:58:13;19.60;;;18.70;;
33206;SDS011;19565;46.602;11.534;2023-04-25T13:00:41;19.80;;;18.90;;
33206;SDS011;19565;46.602;11.534;2023-04-25T13:03:09;24.90;;;23.80;;
33206;SDS011;19565;46.602;11.534;2023-04-25T13:05:39;28.13;;;26.92;;
33206;SDS011;19565;46.602;11.534;2023-04-25T13:08:08;26.20;;;25.00;;
33206;SDS011;19565;46.602;11.534;2023-04-25T13:10:36;20.05;;;19.15;;
33206;SDS011;19565;46.602;11.534;2023-04-25T13:13:05;20.20;;;19.30;;
33206;SDS011;19565;46.602;11.534;2023-04-25T13:15:33;20.58;;;19.58;;
33206;SDS011;19565;46.602;11.534;2023-04-25T13:18:02;20.30;;;19.30;;
33206;SDS011;19565;46.602;11.534;2023-04-25T13:20:30;19.25;;;18.35;;
33206;SDS011;19565;46.602;11.534;2023-04-25T13:22:58;18.65;;;17.65;;
33206;SDS011;19565;46.602;11.534;2023-04-25T13:25:29;19.02;;;17.92;;
33206;SDS011;19565;46.602;11.534;2023-04-25T13:27:57;33.83;;;32.33;;
33206;SDS011;19565;46.602;11.534;2023-04-25T13:30:25;19.45;;;18.55;;
33206;SDS011;19565;46.602;11.534;2023-04-25T13:32:53;20.10;;;19.10;;
33206;SDS011;19565;46.602;11.534;2023-04-25T13:35:23;21.55;;;20.25;;
33206;SDS011;19565;46.602;11.534;2023-04-25T13:37:52;20.08;;;19.17;;
33206;SDS011;19565;46.602;11.534;2023-04-25T13:40:20;18.08;;;17.17;;
33206;SDS011;19565;46.602;11.534;2023-04-25T13:42:52;18.90;;;18.00;;
33206;SDS011;19565;46.602;11.534;2023-04-25T13:45:20;19.17;;;18.27;;
33206;SDS011;19565;46.602;11.534;2023-04-25T13:47:48;18.80;;;17.90;;
33206;SDS011;19565;46.602;11.534;2023-04-25T13:50:16;23.65;;;22.55;;
33206;SDS011;19565;46.602;11.534;2023-04-25T13:52:44;19.48;;;18.58;;
33206;SDS011;19565;46.602;11.534;2023-04-25T13:55:12;19.15;;;18.25;;
33206;SDS011;19565;46.602;11.534;2023-04-25T13:57:41;19.60;;;18.70;;
33206;SDS011;19565;46.602;11.534;2023-04-25T14:00:12;22.25;;;21.25;;
33206;SDS011;19565;46.602;11.534;2023-04-25T14:02:40;19.70;;;18.70;;
33206;SDS011;19565;46.602;11.534;2023-04-25T14:05:09;20.42;;;19.42;;
33206;SDS011;19565;46.602;11.534;2023-04-25T14:07:37;17.00;;;16.17;;
33206;SDS011;19565;46.602;11.534;2023-04-25T14:10:05;24.50;;;23.40;;
33206;SDS011;19565;46.602;11.534;2023-04-25T14:12:33;30.55;;;29.25;;
33206;SDS011;19565;46.602;11.534;2023-04-25T14:15:02;33.70;;;32.20;;
33206;SDS011;19565;46.602;11.534;2023-04-25T14:17:32;20.80;;;19.80;;
33206;SDS011;19565;46.602;11.534;2023-04-25T14:20:00;19.98;;;19.08;;
33206;SDS011;19565;46.602;11.534;2023-04-25T14:22:31;20.45;;;19.45;;
33206;SDS011;19565;46.602;11.534;2023-04-25T14:24:59;19.70;;;18.80;;